Time;durP1;ratioP1;P1;durP2;ratioP2;P2;SDS_P1;SDS_P2;PMS_P1;PMS_P2;Temp;Humidity;BMP_temperature;BMP_pressure;BME280_temperature;BME280_humidity;BME280_pressure;Samples;Min_cycle;Max_cycle;Signal;HPM_P1;HPM_P2
2023/04/26 00:00:32;;;;;;;4.90;3.40;;;6.20;99.90;;;;;;10429074;28;20232;-71
2023/04/26 00:05:33;;;;;;;4.83;3.53;;;6.10;99.90;;;;;;10428652;28;20302;-75
2023/04/26 00:10:34;;;;;;;9.20;3.57;;;6.00;99.90;;;;;;10422469;28;20230;-75
2023/04/26 00:15:35;;;;;;;7.33;4.37;;;5.90;99.90;;;;;;10419315;28;20278;-74
2023/04/26 00:20:36;;;;;;;4.20;3.40;;;5.90;99.90;;;;;;10427673;28;20234;-77
2023/04/26 00:25:37;;;;;;;7.13;3.80;;;5.80;99.90;;;;;;10423597;28;20293;-78
2023/04/26 00:30:41;;;;;;;7.73;4.30;;;5.80;99.90;;;;;;10407690;28;20240;-75
2023/04/26 00:35:41;;;;;;;7.07;3.77;;;5.80;99.90;;;;;;10416308;28;20217;-72
2023/04/26 00:40:42;;;;;;;5.97;3.60;;;5.70;99.90;;;;;;10425830;28;20216;-73
2023/04/26 00:45:43;;;;;;;6.87;3.70;;;5.60;99.90;;;;;;10423918;28;20213;-73
2023/04/26 00:50:43;;;;;;;5.50;3.60;;;5.60;99.90;;;;;;10431630;28;20220;-73
2023/04/26 00:55:44;;;;;;;7.33;3.63;;;5.40;99.90;;;;;;10425262;28;20215;-73
2023/04/26 01:00:45;;;;;;;8.97;3.53;;;5.40;99.90;;;;;;10422739;28;20265;-73
2023/04/26 01:05:46;;;;;;;6.47;3.53;;;5.40;99.90;;;;;;10417512;28;20586;-75
2023/04/26 01:10:48;;;;;;;4.70;3.27;;;5.30;99.90;;;;;;10425538;28;20220;-74
2023/04/26 01:15:53;;;;;;;7.07;3.30;;;5.20;99.90;;;;;;10435045;28;20635;-73
2023/04/26 01:20:55;;;;;;;7.33;3.60;;;5.10;99.90;;;;;;10436940;28;20236;-70
2023/04/26 01:25:56;;;;;;;7.03;3.70;;;5.00;99.90;;;;;;10429355;28;20578;-69
2023/04/26 01:30:56;;;;;;;7.67;3.77;;;5.00;99.90;;;;;;10433953;28;20223;-71
2023/04/26 01:35:57;;;;;;;6.83;3.80;;;5.00;99.90;;;;;;10427830;28;20307;-73
2023/04/26 01:41:01;;;;;;;8.33;3.83;;;5.00;99.90;;;;;;10434620;28;20285;-71
2023/04/26 01:46:01;;;;;;;8.70;4.80;;;5.00;99.90;;;;;;10419957;28;20228;-73
2023/04/26 01:51:02;;;;;;;6.73;4.60;;;5.00;99.90;;;;;;10426042;28;20761;-72
2023/04/26 01:56:04;;;;;;;8.40;4.40;;;4.90;99.90;;;;;;10434388;28;20264;-71
2023/04/26 02:01:08;;;;;;;8.60;4.27;;;4.90;99.90;;;;;;10400859;28;20221;-72
2023/04/26 02:06:09;;;;;;;5.40;3.70;;;4.90;99.90;;;;;;10432374;28;20300;-76
2023/04/26 02:11:10;;;;;;;6.50;4.30;;;4.80;99.90;;;;;;10419391;28;20284;-75
2023/04/26 02:16:11;;;;;;;6.33;3.80;;;4.80;99.90;;;;;;10424430;28;20219;-72
2023/04/26 02:21:12;;;;;;;7.07;3.83;;;4.70;99.90;;;;;;10425171;28;20248;-70
2023/04/26 02:26:13;;;;;;;4.57;3.70;;;4.70;99.90;;;;;;10417421;28;20216;-73
2023/04/26 02:31:14;;;;;;;5.70;3.93;;;4.60;99.90;;;;;;10425011;28;20341;-73
2023/04/26 02:36:14;;;;;;;8.50;4.20;;;4.50;99.90;;;;;;10425289;28;20319;-71
2023/04/26 02:41:15;;;;;;;10.63;3.97;;;4.50;99.90;;;;;;10425119;28;20692;-69
2023/04/26 02:46:16;;;;;;;5.87;4.03;;;4.50;99.90;;;;;;10420980;28;20243;-71
2023/04/26 02:51:16;;;;;;;7.57;4.03;;;4.40;99.90;;;;;;10425884;28;20311;-71
2023/04/26 02:56:20;;;;;;;6.30;3.83;;;4.40;99.90;;;;;;10429547;28;20224;-71
2023/04/26 03:01:20;;;;;;;9.13;4.40;;;4.40;99.90;;;;;;10427284;28;20706;-71
2023/04/26 03:06:21;;;;;;;6.43;4.30;;;4.40;99.90;;;;;;10430188;28;20230;-71
2023/04/26 03:11:22;;;;;;;5.97;4.27;;;4.30;99.90;;;;;;10424140;28;20220;-70
2023/04/26 03:16:23;;;;;;;7.87;4.07;;;4.30;99.90;;;;;;10412527;28;20599;-71
2023/04/26 03:21:23;;;;;;;6.70;4.50;;;4.20;99.90;;;;;;10425599;28;20286;-71
2023/04/26 03:26:24;;;;;;;6.43;4.40;;;4.20;99.90;;;;;;10429186;28;20220;-72
2023/04/26 03:31:25;;;;;;;9.03;5.33;;;4.20;99.90;;;;;;10424900;28;20217;-72
2023/04/26 03:36:27;;;;;;;7.50;5.33;;;4.10;99.90;;;;;;10426895;28;20227;-70
2023/04/26 03:41:28;;;;;;;8.93;5.30;;;4.10;99.90;;;;;;10430397;28;20216;-72
2023/04/26 03:46:31;;;;;;;7.47;5.03;;;4.10;99.90;;;;;;10425203;28;20696;-72
2023/04/26 03:51:32;;;;;;;7.17;4.57;;;4.00;99.90;;;;;;10425662;28;20215;-74
2023/04/26 03:56:33;;;;;;;9.53;5.43;;;4.00;99.90;;;;;;10431150;28;20223;-75
2023/04/26 04:01:34;;;;;;;6.50;4.53;;;4.00;99.90;;;;;;10426629;28;20231;-75
2023/04/26 04:06:35;;;;;;;5.50;4.33;;;4.00;99.90;;;;;;10421121;28;20275;-75
2023/04/26 04:11:35;;;;;;;9.07;5.03;;;4.00;99.90;;;;;;10425750;28;20342;-74
2023/04/26 04:16:36;;;;;;;6.67;5.00;;;3.90;99.90;;;;;;10418752;28;20382;-74
2023/04/26 04:21:37;;;;;;;8.37;5.17;;;3.90;99.90;;;;;;10413019;28;20309;-73
2023/04/26 04:26:38;;;;;;;8.03;5.40;;;3.90;99.90;;;;;;10421151;28;20224;-76
2023/04/26 04:31:40;;;;;;;9.23;5.20;;;4.00;99.90;;;;;;10435717;28;20212;-76
2023/04/26 04:36:40;;;;;;;8.10;5.53;;;4.10;99.90;;;;;;10430759;28;20311;-76
2023/04/26 04:41:47;;;;;;;9.33;5.50;;;4.10;99.90;;;;;;10419761;28;20354;-76
2023/04/26 04:46:47;;;;;;;10.03;5.00;;;4.20;99.90;;;;;;10407151;28;20208;-73
2023/04/26 04:51:59;;;;;;;6.70;4.93;;;4.30;99.90;;;;;;10442367;28;20639;-76
2023/04/26 04:57:00;;;;;;;7.67;5.10;;;4.50;99.90;;;;;;10436621;28;20212;-77
2023/04/26 05:02:02;;;;;;;8.03;5.37;;;4.70;99.90;;;;;;10427602;28;20992;-77
2023/04/26 05:07:02;;;;;;;11.73;5.97;;;4.90;99.90;;;;;;10427807;28;20220;-68
2023/04/26 05:12:03;;;;;;;8.80;4.90;;;5.00;99.90;;;;;;10429237;28;20228;-69
2023/04/26 05:17:04;;;;;;;8.17;5.60;;;5.30;99.90;;;;;;10425401;28;20216;-69
2023/04/26 05:22:04;;;;;;;10.30;5.37;;;5.60;99.90;;;;;;10436544;28;20228;-69
2023/04/26 05:27:05;;;;;;;7.90;5.23;;;5.80;99.90;;;;;;10423687;28;20243;-70
2023/04/26 05:32:06;;;;;;;7.50;4.90;;;6.50;99.90;;;;;;10428608;28;20695;-69
2023/04/26 05:37:06;;;;;;;6.20;4.33;;;8.00;99.90;;;;;;10436175;28;20224;-69
2023/04/26 05:42:07;;;;;;;10.97;4.77;;;7.80;99.90;;;;;;10431856;28;20220;-74
2023/04/26 05:47:08;;;;;;;10.47;5.17;;;7.90;99.90;;;;;;10428259;28;20228;-74
2023/04/26 05:52:09;;;;;;;7.23;4.53;;;9.00;99.90;;;;;;10434963;28;20228;-74
2023/04/26 05:57:10;;;;;;;7.13;4.40;;;9.20;99.90;;;;;;10433843;28;20793;-74
2023/04/26 06:02:11;;;;;;;7.57;4.50;;;9.00;99.90;;;;;;10428809;28;20228;-73
2023/04/26 06:07:12;;;;;;;5.80;3.97;;;8.80;99.90;;;;;;10432652;28;20358;-73
2023/04/26 06:12:12;;;;;;;8.17;3.80;;;9.20;99.90;;;;;;10427251;28;20691;-74
2023/04/26 06:17:13;;;;;;;5.60;2.77;;;12.60;99.90;;;;;;10432351;28;20781;-74
2023/04/26 06:22:13;;;;;;;6.53;3.30;;;16.70;99.20;;;;;;10409515;28;20224;-75
2023/04/26 06:27:14;;;;;;;6.43;3.00;;;19.70;73.70;;;;;;10423704;28;20212;-73
2023/04/26 06:32:15;;;;;;;4.53;3.00;;;21.30;61.00;;;;;;10424837;28;20282;-75
2023/04/26 06:37:15;;;;;;;18.57;3.90;;;23.00;54.80;;;;;;10430088;28;20269;-74
2023/04/26 06:42:16;;;;;;;12.07;3.87;;;23.50;50.20;;;;;;10425417;28;20231;-73
2023/04/26 06:47:17;;;;;;;17.03;4.60;;;22.10;52.40;;;;;;10421914;28;20216;-74
2023/04/26 06:52:18;;;;;;;103.00;11.40;;;22.10;51.20;;;;;;10427649;28;20223;-75
2023/04/26 06:57:19;;;;;;;37.33;6.77;;;20.70;51.50;;;;;;10431814;28;20220;-75
2023/04/26 07:02:23;;;;;;;8.90;4.00;;;18.10;56.10;;;;;;10429188;28;20224;-74
2023/04/26 07:07:23;;;;;;;6.07;3.40;;;15.40;62.00;;;;;;10426602;28;20216;-73
2023/04/26 07:12:24;;;;;;;5.77;3.57;;;14.00;68.80;;;;;;10421290;28;20652;-73
2023/04/26 07:17:25;;;;;;;10.10;3.60;;;13.70;73.10;;;;;;10428432;28;20224;-76
2023/04/26 07:22:26;;;;;;;7.80;3.97;;;13.90;74.20;;;;;;10424956;28;20224;-73
2023/04/26 07:27:27;;;;;;;7.00;3.77;;;14.20;73.60;;;;;;10428781;28;20253;-73
2023/04/26 07:32:27;;;;;;;9.83;3.63;;;15.00;68.60;;;;;;10425159;28;20220;-75
2023/04/26 07:37:28;;;;;;;6.67;3.50;;;17.10;64.20;;;;;;10428164;28;20699;-73
2023/04/26 07:42:29;;;;;;;9.37;3.63;;;20.20;54.80;;;;;;10426964;28;20250;-74
2023/04/26 07:47:30;;;;;;;10.00;4.00;;;21.90;50.40;;;;;;10429506;28;20224;-74
2023/04/26 07:52:31;;;;;;;9.50;3.60;;;21.10;48.50;;;;;;10426473;28;20222;-73
2023/04/26 07:57:31;;;;;;;8.03;3.63;;;21.80;48.30;;;;;;10424966;28;20226;-75
2023/04/26 08:02:32;;;;;;;6.17;3.47;;;22.40;46.00;;;;;;10426085;28;20583;-73
2023/04/26 08:07:33;;;;;;;9.23;3.27;;;22.00;47.70;;;;;;10426054;28;20225;-75
2023/04/26 08:12:36;;;;;;;10.27;3.47;;;22.70;45.40;;;;;;10417192;28;20217;-74
2023/04/26 08:17:36;;;;;;;7.37;3.67;;;21.80;46.60;;;;;;10420576;28;20223;-74
2023/04/26 08:22:37;;;;;;;7.10;3.23;;;20.80;47.00;;;;;;10432572;28;20231;-74
2023/04/26 08:27:41;;;;;;;6.90;2.80;;;21.20;47.60;;;;;;10428897;28;20305;-74
2023/04/26 08:32:41;;;;;;;9.20;3.20;;;20.70;48.10;;;;;;10424628;28;20225;-74
2023/04/26 08:37:42;;;;;;;8.20;3.63;;;22.70;44.30;;;;;;10426490;28;20230;-74
2023/04/26 08:42:43;;;;;;;6.30;3.07;;;24.90;41.00;;;;;;10432575;28;20239;-75
2023/04/26 08:47:47;;;;;;;7.67;3.30;;;27.30;37.90;;;;;;10427818;28;20216;-74
2023/04/26 08:52:50;;;;;;;7.03;3.07;;;27.60;34.20;;;;;;10423409;28;20221;-75
2023/04/26 08:57:51;;;;;;;8.07;3.00;;;26.50;36.00;;;;;;10434182;28;20235;-74
2023/04/26 09:02:52;;;;;;;9.57;2.90;;;25.40;36.10;;;;;;10426455;28;20231;-74
2023/04/26 09:07:56;;;;;;;5.93;2.83;;;24.70;38.40;;;;;;10430499;28;20212;-74
2023/04/26 09:12:57;;;;;;;6.03;3.33;;;24.20;38.90;;;;;;10436207;28;20242;-74
2023/04/26 09:18:16;;;;;;;6.63;2.93;;;23.70;37.20;;;;;;10422706;28;20329;-75
2023/04/26 09:23:18;;;;;;;6.77;2.67;;;22.70;38.80;;;;;;10432731;28;20230;-73
2023/04/26 09:28:21;;;;;;;4.40;2.50;;;23.40;38.20;;;;;;10432811;28;20709;-74
2023/04/26 09:33:21;;;;;;;5.07;2.67;;;24.40;36.40;;;;;;10430185;28;20304;-74
2023/04/26 09:38:22;;;;;;;5.07;2.70;;;24.90;35.80;;;;;;10430857;28;20300;-74
2023/04/26 09:43:23;;;;;;;5.40;2.70;;;25.30;35.80;;;;;;10430324;28;20231;-73
2023/04/26 09:48:29;;;;;;;3.87;2.00;;;25.50;34.90;;;;;;10426571;28;20243;-74
2023/04/26 09:53:40;;;;;;;5.50;2.83;;;26.50;33.70;;;;;;10431295;28;20239;-74
2023/04/26 09:58:56;;;;;;;5.63;2.50;;;24.80;34.80;;;;;;10430916;28;20642;-74
2023/04/26 10:03:59;;;;;;;5.63;2.60;;;24.00;35.10;;;;;;10424328;28;20215;-74
2023/04/26 10:09:02;;;;;;;10.63;2.80;;;21.50;38.20;;;;;;10432647;28;20235;-73
2023/04/26 10:14:03;;;;;;;8.87;2.57;;;19.80;41.40;;;;;;10424291;28;20621;-73
2023/04/26 10:19:04;;;;;;;9.40;2.73;;;18.80;42.20;;;;;;10434722;28;20215;-73
2023/04/26 10:24:06;;;;;;;4.53;2.20;;;19.20;43.10;;;;;;10400165;28;20225;-74
2023/04/26 10:29:10;;;;;;;5.67;2.40;;;19.40;42.50;;;;;;10427578;28;20294;-74
2023/04/26 10:34:18;;;;;;;7.63;2.47;;;19.30;43.80;;;;;;10422173;28;20583;-74
2023/04/26 10:39:24;;;;;;;24.27;4.53;;;18.80;44.80;;;;;;10422065;28;20213;-73
2023/04/26 10:44:41;;;;;;;6.40;2.53;;;19.10;43.90;;;;;;10428828;28;20224;-73
2023/04/26 10:49:46;;;;;;;4.53;1.90;;;19.30;43.10;;;;;;10423705;28;20221;-74
2023/04/26 10:54:58;;;;;;;4.87;2.47;;;19.90;42.60;;;;;;10422557;28;20216;-74
2023/04/26 11:00:13;;;;;;;5.23;2.07;;;20.00;41.80;;;;;;10432245;28;20219;-74
2023/04/26 11:05:41;;;;;;;8.13;2.13;;;20.20;41.00;;;;;;10399361;28;20807;-73
2023/04/26 11:10:45;;;;;;;8.30;2.30;;;20.70;41.20;;;;;;10422725;28;20576;-74
2023/04/26 11:15:46;;;;;;;5.17;2.03;;;21.20;38.00;;;;;;10425039;28;20219;-73
2023/04/26 11:20:47;;;;;;;4.37;2.10;;;21.10;37.50;;;;;;10428215;28;20231;-74
2023/04/26 11:25:48;;;;;;;3.07;1.70;;;21.40;38.80;;;;;;10420626;28;20230;-74
2023/04/26 11:30:49;;;;;;;5.70;2.60;;;21.20;38.90;;;;;;10423859;28;20270;-75
2023/04/26 11:35:52;;;;;;;6.43;2.50;;;20.40;40.00;;;;;;10429139;28;20314;-73
2023/04/26 11:40:58;;;;;;;4.93;2.20;;;19.60;42.00;;;;;;10421665;28;20373;-73
2023/04/26 11:46:00;;;;;;;2.77;1.87;;;18.50;44.20;;;;;;10429583;28;20227;-74
2023/04/26 11:51:03;;;;;;;5.37;2.07;;;18.00;42.90;;;;;;10421496;28;20281;-72
2023/04/26 11:56:15;;;;;;;3.63;2.10;;;18.10;44.20;;;;;;10421820;28;20730;-73
2023/04/26 12:01:26;;;;;;;6.17;2.10;;;18.10;43.40;;;;;;10409113;28;20229;-73
2023/04/26 12:06:44;;;;;;;7.57;2.60;;;18.30;44.30;;;;;;10427045;28;20227;-73
2023/04/26 12:11:52;;;;;;;8.57;2.57;;;18.10;46.20;;;;;;10417113;28;20212;-74
2023/04/26 12:16:52;;;;;;;5.77;2.50;;;17.80;46.70;;;;;;10422522;28;20257;-73
2023/04/26 12:21:56;;;;;;;5.43;2.30;;;17.20;47.00;;;;;;10427322;28;20698;-73
2023/04/26 12:26:56;;;;;;;5.90;2.43;;;16.70;48.00;;;;;;10420373;28;20221;-73
2023/04/26 12:31:58;;;;;;;4.20;2.20;;;16.70;48.80;;;;;;10407647;28;20225;-72
2023/04/26 12:36:59;;;;;;;5.90;2.17;;;16.90;47.00;;;;;;10425266;28;20305;-73
2023/04/26 12:41:59;;;;;;;5.50;2.20;;;17.00;49.50;;;;;;10420850;28;20668;-72
2023/04/26 12:47:00;;;;;;;4.83;2.47;;;17.00;48.50;;;;;;10428392;28;20264;-72
2023/04/26 12:52:01;;;;;;;5.13;2.07;;;16.90;49.00;;;;;;10429868;28;20225;-73
2023/04/26 12:57:01;;;;;;;3.67;2.17;;;16.70;46.80;;;;;;10420809;28;20883;-73
2023/04/26 13:02:02;;;;;;;6.77;2.57;;;16.50;47.40;;;;;;10420269;28;20237;-73
2023/04/26 13:07:04;;;;;;;4.80;1.90;;;16.50;48.30;;;;;;10426666;28;20246;-73
2023/04/26 13:12:04;;;;;;;4.10;2.07;;;16.60;47.30;;;;;;10436841;28;20222;-73
2023/04/26 13:17:07;;;;;;;3.90;2.20;;;16.90;46.40;;;;;;10410406;28;20224;-73
2023/04/26 13:22:10;;;;;;;4.90;2.10;;;17.10;47.20;;;;;;10434245;28;20239;-73
2023/04/26 13:27:11;;;;;;;5.83;2.40;;;17.30;45.80;;;;;;10428868;28;20235;-72
2023/04/26 13:32:12;;;;;;;4.83;1.77;;;17.50;45.90;;;;;;10433283;28;20231;-73
2023/04/26 13:37:18;;;;;;;6.50;2.50;;;17.80;47.10;;;;;;10427424;28;20236;-74
2023/04/26 13:42:19;;;;;;;4.53;2.00;;;18.00;47.70;;;;;;10432404;28;20230;-74
2023/04/26 13:47:20;;;;;;;8.50;2.30;;;17.70;46.60;;;;;;10429306;28;20251;-73
2023/04/26 13:52:20;;;;;;;7.77;2.50;;;17.20;45.90;;;;;;10433729;28;20242;-73
2023/04/26 13:57:23;;;;;;;6.43;2.10;;;16.90;46.70;;;;;;10429285;28;20901;-73
2023/04/26 14:02:24;;;;;;;4.73;2.53;;;16.90;47.60;;;;;;10431374;28;20237;-72
2023/04/26 14:07:28;;;;;;;7.63;2.73;;;16.60;47.60;;;;;;10428305;28;20231;-73
2023/04/26 14:12:28;;;;;;;4.97;2.10;;;16.20;47.00;;;;;;10427117;28;20227;-73
2023/04/26 14:17:31;;;;;;;5.17;2.30;;;16.10;48.20;;;;;;10415566;28;20227;-72
2023/04/26 14:22:31;;;;;;;6.40;2.30;;;16.10;49.50;;;;;;10424290;28;20283;-72
2023/04/26 14:27:33;;;;;;;8.47;2.20;;;16.00;49.50;;;;;;10426451;28;20363;-72
2023/04/26 14:32:34;;;;;;;4.73;2.23;;;16.20;47.90;;;;;;10425246;28;20697;-74
2023/04/26 14:37:35;;;;;;;4.30;2.63;;;16.00;48.60;;;;;;10435809;28;20228;-73
2023/04/26 14:42:43;;;;;;;5.37;2.13;;;15.70;48.80;;;;;;10422691;28;20287;-74
2023/04/26 14:47:43;;;;;;;5.00;2.03;;;15.60;48.20;;;;;;10427075;28;20226;-73
2023/04/26 14:52:45;;;;;;;9.97;2.03;;;15.40;50.50;;;;;;10424122;28;20651;-73
2023/04/26 14:57:46;;;;;;;6.47;2.60;;;15.30;50.60;;;;;;10427477;28;20591;-73
2023/04/26 15:02:46;;;;;;;4.20;2.00;;;15.30;51.50;;;;;;10422938;28;20237;-72
2023/04/26 15:07:47;;;;;;;5.97;2.10;;;15.30;51.20;;;;;;10437443;28;20216;-74
2023/04/26 15:12:47;;;;;;;6.13;2.50;;;15.20;50.90;;;;;;10427867;28;20212;-73
2023/04/26 15:17:48;;;;;;;7.10;2.27;;;15.20;52.20;;;;;;10421469;28;20237;-73
2023/04/26 15:22:49;;;;;;;6.90;1.77;;;15.40;52.30;;;;;;10428121;28;20647;-73
2023/04/26 15:27:50;;;;;;;6.47;2.07;;;15.50;51.20;;;;;;10421267;28;20267;-72
2023/04/26 15:32:51;;;;;;;3.33;1.80;;;15.20;51.10;;;;;;10420852;28;20227;-74
2023/04/26 15:37:52;;;;;;;5.70;2.13;;;15.00;52.70;;;;;;10429614;28;20252;-73
2023/04/26 15:42:53;;;;;;;4.00;1.77;;;14.90;51.40;;;;;;10424866;28;20232;-73
2023/04/26 15:47:54;;;;;;;4.37;1.90;;;14.70;51.30;;;;;;10422805;28;20303;-72
2023/04/26 15:52:57;;;;;;;5.20;2.00;;;14.60;52.10;;;;;;10429790;28;20269;-73
2023/04/26 15:57:58;;;;;;;4.27;1.87;;;14.40;52.00;;;;;;10422473;28;20602;-72
2023/04/26 16:02:59;;;;;;;6.30;1.80;;;13.90;52.90;;;;;;10422710;28;20235;-74
2023/04/26 16:08:02;;;;;;;9.03;2.37;;;13.90;53.80;;;;;;10429413;28;20729;-72
2023/04/26 16:13:03;;;;;;;4.87;1.77;;;13.80;54.40;;;;;;10419155;28;20223;-73
2023/04/26 16:18:04;;;;;;;8.13;2.23;;;13.80;54.80;;;;;;10419042;28;20656;-73
2023/04/26 16:23:06;;;;;;;5.63;1.83;;;13.70;53.90;;;;;;10407765;28;20638;-73
2023/04/26 16:28:09;;;;;;;5.47;1.90;;;13.60;54.20;;;;;;10406190;28;20216;-73
2023/04/26 16:33:10;;;;;;;5.47;2.00;;;13.40;53.90;;;;;;10429274;28;20249;-73
2023/04/26 16:38:11;;;;;;;3.70;1.70;;;13.40;55.10;;;;;;10416058;28;20228;-73
2023/04/26 16:43:13;;;;;;;2.90;1.70;;;13.40;55.40;;;;;;10428920;28;20765;-73
2023/04/26 16:48:13;;;;;;;6.80;1.73;;;13.40;54.90;;;;;;10425461;28;20217;-75
2023/04/26 16:53:14;;;;;;;4.03;1.90;;;13.40;54.30;;;;;;10436507;28;20223;-73
2023/04/26 16:58:15;;;;;;;3.30;1.57;;;13.40;55.10;;;;;;10437247;28;20224;-72
2023/04/26 17:03:16;;;;;;;5.40;2.17;;;13.30;54.60;;;;;;10429736;28;20659;-72
2023/04/26 17:08:18;;;;;;;4.50;1.93;;;13.30;55.30;;;;;;10431879;28;20210;-73
2023/04/26 17:13:19;;;;;;;4.93;1.70;;;13.20;56.10;;;;;;10430681;28;20758;-73
2023/04/26 17:18:20;;;;;;;3.50;1.60;;;13.10;56.20;;;;;;10429482;28;20274;-73
2023/04/26 17:23:21;;;;;;;4.40;2.03;;;13.10;56.20;;;;;;10423210;28;20220;-73
2023/04/26 17:28:22;;;;;;;3.87;1.73;;;13.00;54.50;;;;;;10431865;28;20219;-74
2023/04/26 17:33:24;;;;;;;4.60;1.67;;;13.00;55.20;;;;;;10429789;28;20230;-73
2023/04/26 17:38:24;;;;;;;5.70;2.23;;;13.00;55.30;;;;;;10432328;28;20727;-73
2023/04/26 17:43:25;;;;;;;4.97;2.17;;;13.00;55.30;;;;;;10430377;28;20228;-74
2023/04/26 17:48:27;;;;;;;4.57;2.17;;;13.00;55.40;;;;;;10432938;28;20529;-74
2023/04/26 17:53:28;;;;;;;4.57;1.90;;;13.00;55.70;;;;;;10437140;28;20922;-73
2023/04/26 17:58:35;;;;;;;4.53;1.67;;;13.00;55.60;;;;;;10430846;28;20239;-73
2023/04/26 18:03:36;;;;;;;4.53;1.67;;;12.90;55.80;;;;;;10433350;28;20235;-73
2023/04/26 18:08:36;;;;;;;3.63;1.50;;;12.80;54.50;;;;;;10429055;28;20215;-74
2023/04/26 18:13:37;;;;;;;4.50;1.70;;;12.80;55.10;;;;;;10417129;28;20220;-72
2023/04/26 18:18:41;;;;;;;8.80;2.10;;;12.70;55.40;;;;;;10422787;28;20220;-73
2023/04/26 18:23:44;;;;;;;5.50;2.20;;;12.60;56.10;;;;;;10423823;28;20219;-74
2023/04/26 18:28:45;;;;;;;9.00;2.40;;;12.50;57.00;;;;;;10425725;28;20683;-73
2023/04/26 18:33:47;;;;;;;5.37;2.00;;;12.30;58.70;;;;;;10427249;28;20311;-76
2023/04/26 18:38:47;;;;;;;8.97;2.47;;;12.20;61.10;;;;;;10429475;28;20224;-73
2023/04/26 18:43:48;;;;;;;6.17;2.00;;;12.10;61.00;;;;;;10423142;28;20219;-73
2023/04/26 18:48:49;;;;;;;2.97;1.70;;;11.90;61.10;;;;;;10425189;28;20300;-74
2023/04/26 18:53:50;;;;;;;6.23;2.00;;;11.80;62.60;;;;;;10422231;28;20311;-73
2023/04/26 18:58:51;;;;;;;5.47;1.87;;;11.70;62.80;;;;;;10424904;28;20737;-75
2023/04/26 19:03:51;;;;;;;4.93;1.80;;;11.70;63.20;;;;;;10422687;28;20231;-73
2023/04/26 19:08:52;;;;;;;9.27;2.67;;;11.60;63.70;;;;;;10421129;28;20263;-74
2023/04/26 19:13:52;;;;;;;5.27;2.20;;;11.50;62.60;;;;;;10430567;28;20237;-74
2023/04/26 19:18:53;;;;;;;7.63;2.80;;;11.50;63.60;;;;;;10424364;28;20219;-74
2023/04/26 19:23:54;;;;;;;5.37;2.23;;;11.40;63.90;;;;;;10422408;28;20320;-73
2023/04/26 19:28:55;;;;;;;4.63;1.90;;;11.40;64.80;;;;;;10426885;28;20222;-73
2023/04/26 19:33:55;;;;;;;4.17;1.70;;;11.20;64.80;;;;;;10422787;28;20240;-73
2023/04/26 19:38:56;;;;;;;7.37;2.30;;;11.20;65.40;;;;;;10430986;28;20243;-73
2023/04/26 19:43:57;;;;;;;7.90;2.07;;;11.10;65.70;;;;;;10428446;28;20223;-74
2023/04/26 19:48:57;;;;;;;5.83;1.87;;;11.00;65.90;;;;;;10422179;28;20240;-73
2023/04/26 19:53:58;;;;;;;5.50;2.17;;;10.90;66.40;;;;;;10426983;28;20220;-73
2023/04/26 19:59:01;;;;;;;6.57;2.07;;;10.90;67.20;;;;;;10421384;28;20600;-74
2023/04/26 20:04:02;;;;;;;3.80;2.20;;;10.80;67.40;;;;;;10420233;28;20718;-72
2023/04/26 20:09:05;;;;;;;3.43;1.97;;;10.60;68.10;;;;;;10421030;28;20224;-73
2023/04/26 20:14:05;;;;;;;7.67;2.13;;;10.60;67.40;;;;;;10417669;28;20232;-73
2023/04/26 20:19:06;;;;;;;5.07;2.13;;;10.50;67.60;;;;;;10413244;28;20240;-74
2023/04/26 20:24:07;;;;;;;8.17;2.20;;;10.50;68.10;;;;;;10417622;28;20282;-74
2023/04/26 20:29:07;;;;;;;8.47;2.50;;;10.40;68.80;;;;;;10417182;28;20213;-74
2023/04/26 20:34:08;;;;;;;5.67;2.10;;;10.30;69.00;;;;;;10427516;28;20687;-73
2023/04/26 20:39:09;;;;;;;5.37;2.30;;;10.20;69.10;;;;;;10414846;28;20258;-72
2023/04/26 20:44:10;;;;;;;5.07;2.30;;;10.20;69.40;;;;;;10422801;28;20223;-72
2023/04/26 20:49:11;;;;;;;4.53;2.00;;;10.10;70.70;;;;;;10426940;28;20260;-70
2023/04/26 20:54:12;;;;;;;4.10;1.70;;;10.00;70.20;;;;;;10419617;28;20235;-74
2023/04/26 20:59:12;;;;;;;8.13;2.33;;;10.00;71.20;;;;;;10418892;28;20251;-75
2023/04/26 21:04:13;;;;;;;5.97;2.50;;;9.90;72.00;;;;;;10427786;28;20606;-74
2023/04/26 21:09:15;;;;;;;5.30;2.30;;;9.90;72.40;;;;;;10419528;28;20315;-74
2023/04/26 21:14:15;;;;;;;6.33;2.60;;;9.80;72.90;;;;;;10417282;28;20217;-72
2023/04/26 21:19:16;;;;;;;6.17;2.57;;;9.70;73.60;;;;;;10425752;28;20223;-70
2023/04/26 21:24:20;;;;;;;6.43;2.50;;;9.60;74.50;;;;;;10420411;28;20235;-71
2023/04/26 21:29:20;;;;;;;6.20;2.80;;;9.50;75.10;;;;;;10425422;28;20729;-70
2023/04/26 21:34:24;;;;;;;5.43;3.13;;;9.50;75.60;;;;;;10435325;28;20325;-71
2023/04/26 21:39:24;;;;;;;8.43;2.83;;;9.50;75.80;;;;;;10428413;28;20217;-69
2023/04/26 21:44:25;;;;;;;5.37;2.43;;;9.50;76.00;;;;;;10432474;28;20216;-69
2023/04/26 21:49:26;;;;;;;5.60;2.80;;;9.30;76.70;;;;;;10423366;28;20887;-70
2023/04/26 21:54:27;;;;;;;6.33;2.90;;;9.20;78.00;;;;;;10427913;28;20219;-71
2023/04/26 21:59:27;;;;;;;6.13;3.13;;;9.20;78.30;;;;;;10432680;28;20255;-71
2023/04/26 22:04:28;;;;;;;6.90;2.80;;;9.00;78.60;;;;;;10426701;28;20252;-71
2023/04/26 22:09:28;;;;;;;7.40;2.90;;;9.00;79.60;;;;;;10428702;28;20226;-70
2023/04/26 22:14:30;;;;;;;8.43;2.80;;;9.00;79.40;;;;;;10426208;28;20595;-71
2023/04/26 22:19:30;;;;;;;8.57;3.07;;;8.90;80.40;;;;;;10429367;28;20225;-72
2023/04/26 22:24:31;;;;;;;11.47;3.07;;;8.80;82.00;;;;;;10424216;28;20216;-71
2023/04/26 22:29:31;;;;;;;5.27;3.20;;;8.70;83.50;;;;;;10427425;28;20940;-70
2023/04/26 22:34:32;;;;;;;6.00;3.33;;;8.70;83.70;;;;;;10413428;28;20224;-71
2023/04/26 22:39:33;;;;;;;5.83;3.30;;;8.70;85.20;;;;;;10424900;28;20311;-71
2023/04/26 22:44:33;;;;;;;9.17;3.53;;;8.60;86.10;;;;;;10427113;28;20292;-70
2023/04/26 22:49:37;;;;;;;10.37;3.17;;;8.50;86.20;;;;;;10423493;28;20710;-70
2023/04/26 22:54:37;;;;;;;6.50;3.73;;;8.50;86.50;;;;;;10428183;28;20228;-69
2023/04/26 22:59:38;;;;;;;11.03;4.40;;;8.50;87.20;;;;;;10428803;28;20219;-70
2023/04/26 23:04:38;;;;;;;9.33;3.83;;;8.60;86.70;;;;;;10426809;28;20216;-70
2023/04/26 23:09:39;;;;;;;8.07;3.00;;;8.60;87.00;;;;;;10428062;28;20698;-68
2023/04/26 23:14:40;;;;;;;5.50;3.30;;;8.70;86.70;;;;;;10418537;28;20220;-70
2023/04/26 23:19:41;;;;;;;6.20;3.10;;;8.80;86.50;;;;;;10427647;28;20224;-69
2023/04/26 23:24:42;;;;;;;6.37;3.40;;;8.80;86.90;;;;;;10427222;28;20248;-70
2023/04/26 23:29:42;;;;;;;5.67;3.27;;;8.90;87.00;;;;;;10420776;28;20215;-69
2023/04/26 23:34:43;;;;;;;6.30;3.40;;;8.90;88.30;;;;;;10427883;28;20251;-69
2023/04/26 23:39:43;;;;;;;9.73;3.90;;;8.90;88.80;;;;;;10424973;28;20216;-69
2023/04/26 23:44:44;;;;;;;7.50;3.70;;;8.80;90.30;;;;;;10426205;28;20283;-70
2023/04/26 23:49:44;;;;;;;6.93;3.77;;;8.70;90.90;;;;;;10427505;28;20592;-70
2023/04/26 23:54:45;;;;;;;9.00;3.17;;;8.70;90.70;;;;;;10425494;28;20334;-70
2023/04/26 23:59:52;;;;;;;4.77;3.10;;;8.70;91.10;;;;;;10426483;28;20298;-70
